Time;durP1;ratioP1;P1;durP2;ratioP2;P2;SDS_P1;SDS_P2;PMS_P1;PMS_P2;Temp;Humidity;BMP_temperature;BMP_pressure;BME280_temperature;BME280_humidity;BME280_pressure;Samples;Min_cycle;Max_cycle;Signal;HPM_P1;HPM_P2
2023/05/24 00:01:36;;;;;;;18.50;3.70;;;10.10;99.90;;;;;;5133201;27;20268;-55
2023/05/24 00:04:02;;;;;;;18.83;3.90;;;10.00;99.90;;;;;;5115297;27;20024;-57
2023/05/24 00:06:29;;;;;;;18.55;4.40;;;10.00;99.90;;;;;;5133459;27;20035;-58
2023/05/24 00:08:54;;;;;;;15.80;4.25;;;10.00;99.90;;;;;;5133539;27;20110;-55
2023/05/24 00:11:21;;;;;;;20.42;4.22;;;10.00;99.90;;;;;;5132853;27;20039;-57
2023/05/24 00:13:47;;;;;;;17.88;4.45;;;9.90;99.90;;;;;;5133426;27;20027;-56
2023/05/24 00:16:13;;;;;;;23.13;4.10;;;10.00;99.90;;;;;;5133306;27;20034;-54
2023/05/24 00:18:39;;;;;;;20.17;4.82;;;9.90;99.90;;;;;;5097632;27;20047;-55
2023/05/24 00:21:09;;;;;;;20.15;4.15;;;9.90;99.90;;;;;;5132778;27;20046;-58
2023/05/24 00:23:37;;;;;;;21.10;4.38;;;10.00;99.90;;;;;;5133077;27;20479;-57
2023/05/24 00:26:03;;;;;;;18.90;4.18;;;9.90;99.90;;;;;;5133099;27;20042;-56
2023/05/24 00:28:30;;;;;;;22.10;4.13;;;9.90;99.90;;;;;;5114627;27;20301;-56
2023/05/24 00:30:56;;;;;;;18.33;4.13;;;9.90;99.90;;;;;;5132894;27;20412;-59
2023/05/24 00:33:22;;;;;;;17.05;4.35;;;9.80;99.90;;;;;;5132797;27;20042;-59
2023/05/24 00:35:53;;;;;;;20.98;4.85;;;9.80;99.90;;;;;;5132382;27;20045;-58
2023/05/24 00:38:19;;;;;;;24.00;5.05;;;9.70;99.90;;;;;;5114141;27;20039;-58
2023/05/24 00:40:44;;;;;;;18.95;4.10;;;9.70;99.90;;;;;;5131840;27;20500;-58
2023/05/24 00:43:10;;;;;;;20.10;4.55;;;9.60;99.90;;;;;;5132448;27;20035;-56
2023/05/24 00:45:36;;;;;;;20.90;4.30;;;9.60;99.90;;;;;;5132401;27;20106;-57
2023/05/24 00:48:03;;;;;;;21.65;4.55;;;9.60;99.90;;;;;;5132291;27;20053;-56
2023/05/24 00:50:28;;;;;;;21.92;4.30;;;9.60;99.90;;;;;;5132639;27;20051;-58
2023/05/24 00:52:58;;;;;;;22.60;4.32;;;9.60;99.90;;;;;;5131633;27;20039;-58
2023/05/24 00:55:23;;;;;;;17.75;4.63;;;9.60;99.90;;;;;;5132029;27;20035;-58
2023/05/24 00:57:51;;;;;;;20.50;4.53;;;9.60;99.90;;;;;;5113974;27;20049;-57
2023/05/24 01:00:17;;;;;;;18.88;4.82;;;9.60;99.90;;;;;;5112418;27;20079;-55
2023/05/24 01:02:43;;;;;;;17.27;3.88;;;9.60;99.90;;;;;;5131958;27;20476;-55
2023/05/24 01:05:12;;;;;;;16.00;3.88;;;9.50;99.90;;;;;;5113506;27;20087;-55
2023/05/24 01:08:09;;;;;;;20.35;4.38;;;9.60;99.90;;;;;;5132193;27;20088;-54
2023/05/24 01:10:52;;;;;;;21.73;5.00;;;9.60;99.90;;;;;;5132088;27;20379;-54
2023/05/24 01:13:37;;;;;;;16.95;4.57;;;9.50;99.90;;;;;;5131516;27;20404;-56
2023/05/24 01:16:27;;;;;;;19.65;4.35;;;9.50;99.90;;;;;;5131932;27;20031;-54
2023/05/24 01:19:01;;;;;;;22.15;4.53;;;9.50;99.90;;;;;;5132156;27;20046;-56
2023/05/24 01:21:55;;;;;;;20.08;4.40;;;9.50;99.90;;;;;;5131822;27;20081;-56
2023/05/24 01:24:41;;;;;;;16.05;3.85;;;9.50;99.90;;;;;;5132094;27;20035;-56
2023/05/24 01:27:17;;;;;;;25.10;5.65;;;9.60;99.90;;;;;;5132130;27;20046;-55
2023/05/24 01:29:43;;;;;;;23.70;4.65;;;9.50;99.90;;;;;;5130877;27;20042;-58
2023/05/24 01:32:09;;;;;;;22.52;4.32;;;9.50;99.90;;;;;;5131964;27;20050;-53
2023/05/24 01:34:34;;;;;;;25.83;4.65;;;9.60;99.90;;;;;;5113373;28;20084;-56
2023/05/24 01:37:00;;;;;;;22.08;3.92;;;9.60;99.90;;;;;;5132021;27;20039;-58
2023/05/24 01:39:28;;;;;;;15.85;4.20;;;9.60;99.90;;;;;;5131776;27;20450;-54
2023/05/24 01:42:26;;;;;;;20.33;4.22;;;9.60;99.90;;;;;;5131444;27;20046;-57
2023/05/24 01:45:10;;;;;;;20.67;4.95;;;9.60;99.90;;;;;;5130366;28;20027;-56
2023/05/24 01:47:38;;;;;;;18.73;4.28;;;9.70;99.90;;;;;;5131316;28;20131;-58
2023/05/24 01:50:17;;;;;;;24.65;4.25;;;9.70;99.90;;;;;;5131437;28;20066;-59
2023/05/24 01:52:45;;;;;;;15.20;4.75;;;9.70;99.90;;;;;;5131549;28;20035;-56
2023/05/24 01:55:15;;;;;;;25.88;4.93;;;9.60;99.90;;;;;;5131810;28;20042;-55
2023/05/24 01:57:43;;;;;;;19.95;4.38;;;9.70;99.90;;;;;;5131676;28;20470;-52
2023/05/24 02:00:10;;;;;;;18.27;4.45;;;9.70;99.90;;;;;;5131692;28;20172;-56
2023/05/24 02:02:37;;;;;;;20.65;4.30;;;9.70;99.90;;;;;;5131291;27;20046;-57
2023/05/24 02:05:03;;;;;;;28.38;5.22;;;9.70;99.90;;;;;;5135740;27;20130;-58
2023/05/24 02:07:28;;;;;;;24.83;5.13;;;9.70;99.90;;;;;;5135520;27;20027;-54
2023/05/24 02:09:54;;;;;;;20.92;5.95;;;9.70;99.90;;;;;;5135481;27;20103;-56
2023/05/24 02:12:20;;;;;;;24.73;5.30;;;9.70;99.90;;;;;;5135328;27;20042;-59
2023/05/24 02:14:45;;;;;;;27.83;4.57;;;9.70;99.90;;;;;;5135315;27;20035;-55
2023/05/24 02:17:12;;;;;;;25.98;4.82;;;9.70;99.90;;;;;;5135267;27;20035;-57
2023/05/24 02:19:37;;;;;;;21.30;4.35;;;9.60;99.90;;;;;;5135693;27;20125;-58
2023/05/24 02:22:03;;;;;;;19.52;4.47;;;9.60;99.90;;;;;;5135793;27;20118;-56
2023/05/24 02:24:29;;;;;;;28.98;5.07;;;9.60;99.90;;;;;;5135304;27;20562;-54
2023/05/24 02:26:55;;;;;;;24.63;4.53;;;9.50;99.90;;;;;;5135390;27;20080;-57
2023/05/24 02:29:21;;;;;;;21.35;4.32;;;9.50;99.90;;;;;;5135389;27;20459;-56
2023/05/24 02:31:50;;;;;;;24.60;4.25;;;9.50;99.90;;;;;;5116586;27;20041;-56
2023/05/24 02:34:16;;;;;;;22.23;5.03;;;9.40;99.90;;;;;;5135306;27;20042;-53
2023/05/24 02:36:42;;;;;;;25.17;5.07;;;9.40;99.90;;;;;;5135186;27;20047;-57
2023/05/24 02:39:08;;;;;;;21.60;4.85;;;9.30;99.90;;;;;;5135242;27;20031;-54
2023/05/24 02:41:33;;;;;;;22.70;4.28;;;9.30;99.90;;;;;;5134544;27;20549;-58
2023/05/24 02:43:59;;;;;;;20.73;4.88;;;9.30;99.90;;;;;;5134892;27;20043;-56
2023/05/24 02:46:25;;;;;;;24.92;4.13;;;9.20;99.90;;;;;;5134688;27;20181;-56
2023/05/24 02:48:50;;;;;;;22.15;4.85;;;9.20;99.90;;;;;;5135013;27;20074;-54
2023/05/24 02:51:16;;;;;;;19.52;4.30;;;9.20;99.90;;;;;;5134886;27;20039;-57
2023/05/24 02:53:42;;;;;;;26.27;3.95;;;9.10;99.90;;;;;;5134937;27;20492;-57
2023/05/24 02:56:08;;;;;;;31.15;5.18;;;9.10;99.90;;;;;;5134861;27;20386;-53
2023/05/24 02:58:39;;;;;;;21.02;4.10;;;9.00;99.90;;;;;;5134558;27;20042;-56
2023/05/24 03:01:05;;;;;;;22.20;3.63;;;9.00;99.90;;;;;;5115898;27;20663;-58
2023/05/24 03:03:30;;;;;;;21.02;4.57;;;9.00;99.90;;;;;;5134831;27;20127;-53
2023/05/24 03:05:56;;;;;;;21.50;3.97;;;9.00;99.90;;;;;;5134682;27;20042;-57
2023/05/24 03:08:22;;;;;;;16.50;4.03;;;8.90;99.90;;;;;;5116007;27;20088;-55
2023/05/24 03:10:47;;;;;;;24.83;6.10;;;8.90;99.90;;;;;;5134063;27;20034;-57
2023/05/24 03:13:13;;;;;;;24.58;4.28;;;8.90;99.90;;;;;;5134539;27;20042;-58
2023/05/24 03:15:39;;;;;;;19.30;4.30;;;8.90;99.90;;;;;;5133670;27;20095;-54
2023/05/24 03:18:05;;;;;;;19.98;4.40;;;8.80;99.90;;;;;;5134250;27;20478;-55
2023/05/24 03:20:32;;;;;;;20.63;4.05;;;8.80;99.90;;;;;;5134082;27;20039;-55
2023/05/24 03:22:57;;;;;;;20.67;4.07;;;8.80;99.90;;;;;;5134323;27;20043;-53
2023/05/24 03:25:23;;;;;;;24.65;4.40;;;8.80;99.90;;;;;;5133997;27;20038;-57
2023/05/24 03:27:49;;;;;;;25.63;6.40;;;8.80;99.90;;;;;;5134273;27;20035;-54
2023/05/24 03:30:14;;;;;;;21.42;3.78;;;8.80;99.90;;;;;;5134085;27;20027;-55
2023/05/24 03:32:40;;;;;;;22.58;4.63;;;8.80;99.90;;;;;;5134157;27;20126;-54
2023/05/24 03:35:06;;;;;;;19.33;3.90;;;8.80;99.90;;;;;;5134113;27;20448;-56
2023/05/24 03:37:32;;;;;;;20.38;4.03;;;8.80;99.90;;;;;;5134086;27;20035;-57
2023/05/24 03:39:57;;;;;;;16.00;3.55;;;8.70;99.90;;;;;;5134132;27;20035;-56
2023/05/24 03:42:23;;;;;;;17.40;4.00;;;8.70;99.90;;;;;;5133671;27;20035;-56
2023/05/24 03:44:49;;;;;;;22.10;6.43;;;8.70;99.90;;;;;;5133848;27;20046;-57
2023/05/24 03:47:15;;;;;;;25.02;4.53;;;8.70;99.90;;;;;;5133745;27;20040;-54
2023/05/24 03:49:40;;;;;;;21.83;4.32;;;8.70;99.90;;;;;;5133674;27;20046;-56
2023/05/24 03:52:06;;;;;;;21.48;4.00;;;8.70;99.90;;;;;;5133901;27;20096;-56
2023/05/24 03:54:31;;;;;;;19.83;3.55;;;8.70;99.90;;;;;;5133723;27;20042;-58
2023/05/24 03:56:57;;;;;;;25.25;3.88;;;8.70;99.90;;;;;;5133983;27;20146;-58
2023/05/24 03:59:23;;;;;;;19.95;6.25;;;8.70;99.90;;;;;;5133782;27;20043;-58
2023/05/24 04:01:49;;;;;;;21.52;4.63;;;8.70;99.90;;;;;;5133666;27;20047;-54
2023/05/24 04:04:14;;;;;;;24.70;5.32;;;8.70;99.90;;;;;;5133016;27;20504;-56
2023/05/24 04:06:40;;;;;;;16.88;4.20;;;8.70;99.90;;;;;;5133445;27;20031;-58
2023/05/24 04:09:06;;;;;;;20.10;4.13;;;8.70;99.90;;;;;;5114800;27;20046;-57
2023/05/24 04:11:32;;;;;;;23.58;4.55;;;8.70;99.90;;;;;;5132888;27;20035;-56
2023/05/24 04:14:01;;;;;;;19.02;4.20;;;8.70;99.90;;;;;;5133501;27;20047;-55
2023/05/24 04:16:27;;;;;;;14.80;3.75;;;8.70;99.90;;;;;;5133191;27;20042;-56
2023/05/24 04:18:56;;;;;;;18.83;4.22;;;8.70;99.90;;;;;;5132842;27;20491;-56
2023/05/24 04:21:22;;;;;;;22.20;3.80;;;8.80;99.90;;;;;;5132930;27;20039;-53
2023/05/24 04:23:48;;;;;;;16.55;3.70;;;8.80;99.90;;;;;;5132650;27;20040;-57
2023/05/24 04:26:14;;;;;;;22.45;4.60;;;8.70;99.90;;;;;;5113756;28;20033;-56
2023/05/24 04:28:41;;;;;;;25.25;4.03;;;8.80;99.90;;;;;;5132420;27;20412;-58
2023/05/24 04:31:08;;;;;;;21.95;3.75;;;8.80;99.90;;;;;;5132898;27;20035;-56
2023/05/24 04:33:35;;;;;;;15.60;3.20;;;8.90;99.90;;;;;;5133044;27;20084;-57
2023/05/24 04:36:00;;;;;;;20.85;3.55;;;8.90;99.90;;;;;;5132675;27;20494;-58
2023/05/24 04:38:37;;;;;;;17.45;3.90;;;8.80;99.90;;;;;;5132533;27;20041;-58
2023/05/24 04:41:04;;;;;;;21.02;3.60;;;8.90;99.90;;;;;;5132564;27;20096;-58
2023/05/24 04:43:31;;;;;;;20.83;3.88;;;8.90;99.90;;;;;;5132535;27;20051;-53
2023/05/24 04:45:57;;;;;;;25.17;4.57;;;9.00;99.90;;;;;;5114094;27;20043;-53
2023/05/24 04:48:23;;;;;;;18.52;5.47;;;9.00;99.90;;;;;;5132690;27;20114;-55
2023/05/24 04:50:57;;;;;;;18.48;3.97;;;9.00;99.90;;;;;;5132603;27;20047;-53
2023/05/24 04:53:23;;;;;;;17.95;3.45;;;9.10;99.90;;;;;;5096515;27;20038;-56
2023/05/24 04:55:49;;;;;;;17.90;3.65;;;9.10;99.90;;;;;;5132320;27;20035;-58
2023/05/24 04:58:16;;;;;;;20.85;5.60;;;9.10;99.90;;;;;;5132388;27;20494;-53
2023/05/24 05:00:42;;;;;;;16.10;4.07;;;9.10;99.90;;;;;;5132494;27;20111;-56
2023/05/24 05:03:08;;;;;;;19.95;3.63;;;9.10;99.90;;;;;;5132585;27;20031;-58
2023/05/24 05:05:34;;;;;;;14.85;3.13;;;9.10;99.90;;;;;;5132516;27;20045;-53
2023/05/24 05:08:00;;;;;;;22.58;5.38;;;9.20;99.90;;;;;;5132031;27;20050;-58
2023/05/24 05:10:26;;;;;;;18.40;3.58;;;9.30;99.90;;;;;;5132070;27;20085;-57
2023/05/24 05:12:52;;;;;;;16.35;4.05;;;9.40;99.90;;;;;;5131892;27;20123;-57
2023/05/24 05:15:21;;;;;;;22.42;3.97;;;9.40;99.90;;;;;;5132253;27;20135;-56
2023/05/24 05:17:46;;;;;;;19.65;3.70;;;9.40;99.90;;;;;;5132067;27;20046;-56
2023/05/24 05:20:12;;;;;;;21.08;3.75;;;9.50;99.90;;;;;;5131884;27;20502;-53
2023/05/24 05:22:38;;;;;;;17.38;4.20;;;9.60;99.90;;;;;;5131859;27;20039;-57
2023/05/24 05:25:04;;;;;;;23.65;3.67;;;9.60;99.90;;;;;;5132096;27;20031;-52
2023/05/24 05:27:30;;;;;;;20.90;3.33;;;9.60;99.90;;;;;;5131758;27;20039;-57
2023/05/24 05:29:55;;;;;;;18.10;3.78;;;9.70;99.90;;;;;;5132071;27;20076;-55
2023/05/24 05:32:21;;;;;;;22.25;3.80;;;9.80;99.90;;;;;;5131819;27;20488;-57
2023/05/24 05:34:47;;;;;;;21.15;3.58;;;9.90;99.90;;;;;;5132020;27;20378;-55
2023/05/24 05:37:12;;;;;;;19.92;3.88;;;10.00;99.90;;;;;;5131808;27;20035;-57
2023/05/24 05:39:38;;;;;;;20.55;4.20;;;10.00;99.90;;;;;;5131617;27;20042;-54
2023/05/24 05:42:04;;;;;;;18.92;3.80;;;10.10;99.90;;;;;;5131280;27;20127;-58
2023/05/24 05:44:30;;;;;;;20.77;4.30;;;10.10;99.90;;;;;;5131557;28;20041;-56
2023/05/24 05:46:55;;;;;;;27.85;4.20;;;10.00;99.90;;;;;;5131379;28;20533;-57
2023/05/24 05:49:21;;;;;;;24.00;4.25;;;10.10;99.90;;;;;;5131765;28;20092;-56
2023/05/24 05:51:47;;;;;;;26.00;4.05;;;10.10;99.90;;;;;;5131419;28;20035;-57
2023/05/24 05:54:14;;;;;;;18.10;4.30;;;10.20;99.90;;;;;;5131647;28;20470;-53
2023/05/24 05:56:44;;;;;;;22.02;4.15;;;10.20;99.90;;;;;;5131174;28;20087;-57
2023/05/24 05:59:14;;;;;;;17.55;4.05;;;10.20;99.90;;;;;;5131504;28;20118;-57
2023/05/24 06:01:41;;;;;;;20.90;3.90;;;10.30;99.90;;;;;;5131544;28;20031;-54
2023/05/24 06:04:07;;;;;;;27.00;4.40;;;10.30;99.90;;;;;;5131616;28;20047;-56
2023/05/24 06:06:32;;;;;;;20.30;4.10;;;10.40;99.90;;;;;;5131235;28;20516;-58
2023/05/24 06:08:59;;;;;;;18.75;4.35;;;10.40;99.90;;;;;;5131603;28;20031;-56
2023/05/24 06:11:25;;;;;;;24.25;4.47;;;10.50;99.90;;;;;;5130917;28;20039;-56
2023/05/24 06:13:52;;;;;;;21.33;4.57;;;10.50;99.90;;;;;;5131602;28;20046;-53
2023/05/24 06:16:18;;;;;;;24.25;5.80;;;10.60;99.90;;;;;;5131522;28;20043;-59
2023/05/24 06:18:44;;;;;;;19.98;3.30;;;10.60;99.90;;;;;;5112900;28;20062;-56
2023/05/24 06:21:10;;;;;;;20.83;3.83;;;10.60;99.90;;;;;;5131280;28;20035;-57
2023/05/24 06:23:36;;;;;;;25.73;4.57;;;10.70;99.90;;;;;;5131490;28;20495;-57
2023/05/24 06:26:03;;;;;;;25.25;4.45;;;10.70;99.90;;;;;;5131361;28;20127;-56
2023/05/24 06:28:28;;;;;;;19.20;4.20;;;10.60;99.90;;;;;;5131117;28;20043;-55
2023/05/24 06:30:54;;;;;;;19.35;4.03;;;10.70;99.90;;;;;;5131360;28;20039;-56
2023/05/24 06:33:21;;;;;;;18.10;3.45;;;10.70;99.90;;;;;;5131310;28;20035;-54
2023/05/24 06:35:47;;;;;;;25.25;4.45;;;10.80;99.90;;;;;;5131345;28;20083;-56
2023/05/24 06:38:13;;;;;;;21.38;4.63;;;10.90;99.90;;;;;;5131448;28;20039;-54
2023/05/24 06:40:38;;;;;;;22.67;4.15;;;10.90;99.90;;;;;;5130991;28;20043;-58
2023/05/24 06:43:04;;;;;;;20.67;4.60;;;10.90;99.90;;;;;;5131274;28;20067;-55
2023/05/24 06:45:30;;;;;;;22.33;5.47;;;11.00;99.90;;;;;;5112966;28;20027;-55
2023/05/24 06:47:56;;;;;;;19.77;5.22;;;11.10;99.90;;;;;;5130876;28;20123;-56
2023/05/24 06:50:21;;;;;;;23.45;4.32;;;11.10;99.90;;;;;;5132474;27;20289;-58
2023/05/24 06:52:47;;;;;;;21.50;4.30;;;11.20;99.90;;;;;;5116260;27;20059;-56
2023/05/24 06:55:13;;;;;;;16.55;4.55;;;11.20;99.90;;;;;;5134815;27;20027;-53
2023/05/24 06:57:38;;;;;;;22.55;3.95;;;11.30;99.90;;;;;;5134652;27;20449;-55
2023/05/24 07:00:11;;;;;;;19.17;4.22;;;11.40;99.90;;;;;;5134820;27;20500;-55
2023/05/24 07:02:40;;;;;;;22.42;4.40;;;11.50;99.90;;;;;;5134848;27;20039;-57
2023/05/24 07:05:11;;;;;;;22.52;4.32;;;11.60;99.90;;;;;;5134590;27;20039;-58
2023/05/24 07:07:39;;;;;;;19.20;3.92;;;11.60;99.90;;;;;;5134884;27;20035;-57
2023/05/24 07:10:07;;;;;;;26.85;4.80;;;11.70;99.90;;;;;;5134390;27;20066;-55
2023/05/24 07:12:33;;;;;;;21.02;4.18;;;11.70;99.90;;;;;;5134154;27;20027;-55
2023/05/24 07:14:59;;;;;;;22.92;4.63;;;11.90;99.90;;;;;;5134675;27;20397;-57
2023/05/24 07:17:25;;;;;;;21.45;4.60;;;11.90;99.90;;;;;;5134503;27;20035;-54
2023/05/24 07:19:51;;;;;;;21.42;4.50;;;12.00;99.90;;;;;;5134618;27;20427;-54
2023/05/24 07:22:17;;;;;;;18.73;4.50;;;12.10;99.90;;;;;;5116015;27;20087;-57
2023/05/24 07:24:42;;;;;;;18.50;3.67;;;12.10;99.90;;;;;;5134278;27;20031;-57
2023/05/24 07:27:08;;;;;;;20.60;3.95;;;12.20;99.90;;;;;;5134301;27;20591;-57
2023/05/24 07:29:34;;;;;;;19.67;3.72;;;12.30;99.90;;;;;;5134370;27;20037;-57
2023/05/24 07:32:00;;;;;;;15.82;4.05;;;12.30;99.90;;;;;;5134048;27;20510;-57
2023/05/24 07:34:28;;;;;;;18.65;4.20;;;12.40;99.90;;;;;;5134331;27;20039;-56
2023/05/24 07:36:55;;;;;;;21.67;3.97;;;12.50;99.90;;;;;;5134013;27;20454;-55
2023/05/24 07:39:22;;;;;;;17.73;3.40;;;12.50;99.90;;;;;;5134344;27;20039;-58
2023/05/24 07:41:47;;;;;;;18.08;3.55;;;12.50;99.90;;;;;;5133503;27;20427;-57
2023/05/24 07:44:13;;;;;;;18.23;4.00;;;12.60;99.90;;;;;;5134044;27;20119;-57
2023/05/24 07:46:39;;;;;;;15.60;3.58;;;12.60;99.90;;;;;;5133397;27;20051;-56
2023/05/24 07:49:05;;;;;;;16.80;3.90;;;12.70;99.90;;;;;;5133999;27;20035;-58
2023/05/24 07:51:31;;;;;;;21.13;4.88;;;12.80;99.90;;;;;;5133397;27;20114;-55
2023/05/24 07:53:57;;;;;;;15.63;3.20;;;12.80;99.90;;;;;;5134006;27;20043;-58
2023/05/24 07:56:23;;;;;;;17.92;3.85;;;12.90;99.90;;;;;;5133730;27;20535;-55
2023/05/24 07:58:50;;;;;;;16.45;3.90;;;12.90;99.90;;;;;;5133827;27;20039;-59
2023/05/24 08:01:19;;;;;;;17.70;3.90;;;12.90;99.90;;;;;;5133062;27;20039;-58
2023/05/24 08:03:45;;;;;;;17.88;3.80;;;12.80;99.90;;;;;;5133667;27;20031;-56
2023/05/24 08:06:11;;;;;;;16.35;3.33;;;12.80;99.90;;;;;;5133577;27;20047;-58
2023/05/24 08:08:39;;;;;;;15.80;3.70;;;12.80;99.90;;;;;;5133384;27;20095;-57
2023/05/24 08:11:06;;;;;;;15.68;3.63;;;12.70;99.90;;;;;;5133153;27;20073;-58
2023/05/24 08:13:33;;;;;;;19.20;4.00;;;12.80;99.90;;;;;;5133321;27;20551;-56
2023/05/24 08:15:58;;;;;;;16.42;3.53;;;12.90;99.90;;;;;;5133346;27;20516;-57
2023/05/24 08:18:24;;;;;;;19.52;3.40;;;13.10;99.90;;;;;;5133484;27;20088;-57
2023/05/24 08:20:50;;;;;;;17.90;3.45;;;13.10;99.90;;;;;;5114984;27;20042;-58
2023/05/24 08:23:16;;;;;;;17.05;3.42;;;13.10;99.90;;;;;;5133362;27;20522;-54
2023/05/24 08:25:42;;;;;;;20.40;3.45;;;13.10;99.90;;;;;;5133121;27;20114;-59
2023/05/24 08:28:09;;;;;;;16.80;3.53;;;13.20;99.90;;;;;;5133189;27;20035;-56
2023/05/24 08:30:35;;;;;;;14.65;3.35;;;13.20;99.90;;;;;;5132735;27;20043;-57
2023/05/24 08:33:01;;;;;;;16.17;3.35;;;13.30;99.90;;;;;;5132826;27;21270;-54
2023/05/24 08:35:27;;;;;;;14.48;3.45;;;13.40;99.90;;;;;;5133003;27;20035;-59
2023/05/24 08:37:53;;;;;;;16.48;3.63;;;13.50;99.90;;;;;;5133081;27;20114;-57
2023/05/24 08:40:19;;;;;;;16.98;3.88;;;13.50;99.90;;;;;;5133065;27;20035;-56
2023/05/24 08:42:45;;;;;;;15.02;3.25;;;13.60;99.90;;;;;;5132591;27;20039;-57
2023/05/24 08:45:12;;;;;;;16.77;4.07;;;13.80;99.90;;;;;;5132825;27;20099;-58
2023/05/24 08:47:39;;;;;;;13.65;3.03;;;13.90;99.90;;;;;;5132387;27;20508;-58
2023/05/24 08:50:07;;;;;;;19.25;3.88;;;13.90;99.90;;;;;;5132747;27;20039;-58
2023/05/24 08:52:33;;;;;;;19.50;3.55;;;14.00;99.90;;;;;;5132390;27;20038;-55
2023/05/24 08:54:59;;;;;;;17.80;3.92;;;14.20;99.90;;;;;;5132531;27;20107;-55
2023/05/24 08:57:26;;;;;;;12.63;3.67;;;14.40;99.90;;;;;;5132380;27;20092;-58
2023/05/24 08:59:54;;;;;;;19.42;4.03;;;14.50;99.90;;;;;;5132425;27;20027;-57
2023/05/24 09:02:21;;;;;;;20.25;4.95;;;14.50;99.90;;;;;;5132083;27;20118;-55
2023/05/24 09:04:49;;;;;;;16.40;3.33;;;14.50;99.90;;;;;;5132270;27;20048;-54
2023/05/24 09:07:18;;;;;;;10.85;3.28;;;14.50;99.90;;;;;;5132457;27;20112;-58
2023/05/24 09:09:48;;;;;;;14.07;3.20;;;14.40;99.90;;;;;;5132278;27;20486;-54
2023/05/24 09:12:17;;;;;;;11.25;3.30;;;14.30;99.90;;;;;;5131851;27;20466;-58
2023/05/24 09:14:48;;;;;;;16.73;3.97;;;14.40;99.90;;;;;;5131674;27;20043;-57
2023/05/24 09:17:14;;;;;;;13.07;3.45;;;14.40;99.90;;;;;;5131645;27;20039;-54
2023/05/24 09:19:45;;;;;;;11.50;3.60;;;14.40;99.90;;;;;;5132306;27;20447;-55
2023/05/24 09:22:13;;;;;;;12.63;3.28;;;14.40;99.90;;;;;;5131300;27;20043;-54
2023/05/24 09:24:47;;;;;;;13.27;3.33;;;14.30;99.90;;;;;;5131819;27;20031;-58
2023/05/24 09:27:15;;;;;;;12.82;3.25;;;14.50;99.90;;;;;;5131664;27;20039;-56
2023/05/24 09:29:42;;;;;;;11.15;3.08;;;14.60;99.90;;;;;;5132000;27;20470;-54
2023/05/24 09:32:08;;;;;;;10.38;3.03;;;14.80;99.90;;;;;;5131766;27;20043;-56
2023/05/24 09:34:41;;;;;;;10.57;3.28;;;14.80;99.90;;;;;;5131585;27;20042;-58
2023/05/24 09:37:15;;;;;;;10.77;2.75;;;14.90;99.90;;;;;;5131751;27;20054;-56
2023/05/24 09:39:49;;;;;;;13.85;3.22;;;15.10;99.90;;;;;;5130640;27;20035;-55
2023/05/24 09:42:22;;;;;;;12.02;3.42;;;15.20;99.90;;;;;;5131224;27;20046;-55
2023/05/24 09:45:09;;;;;;;16.58;3.20;;;15.50;99.90;;;;;;5132006;27;20506;-57
2023/05/24 09:47:37;;;;;;;12.40;3.28;;;15.80;99.90;;;;;;5130831;28;20051;-56
2023/05/24 09:50:05;;;;;;;11.70;3.17;;;15.90;99.90;;;;;;5131741;28;20095;-55
2023/05/24 09:52:35;;;;;;;11.88;3.38;;;15.80;99.90;;;;;;5131754;28;20134;-56
2023/05/24 09:55:19;;;;;;;12.60;3.10;;;15.70;99.90;;;;;;5131731;28;20057;-56
2023/05/24 09:57:50;;;;;;;14.05;3.45;;;15.80;99.90;;;;;;5131368;28;20119;-56
2023/05/24 10:00:22;;;;;;;14.93;3.53;;;16.10;99.90;;;;;;5131475;28;20084;-57
2023/05/24 10:03:01;;;;;;;11.07;3.30;;;16.30;99.90;;;;;;5113571;28;20041;-56
2023/05/24 10:05:27;;;;;;;16.48;3.72;;;16.30;99.90;;;;;;5131474;28;20027;-56
2023/05/24 10:07:54;;;;;;;11.13;3.40;;;16.30;99.90;;;;;;5113169;28;20474;-55
2023/05/24 10:10:20;;;;;;;11.70;3.45;;;16.30;99.90;;;;;;5131528;28;20108;-56
2023/05/24 10:12:47;;;;;;;10.98;3.13;;;16.50;99.90;;;;;;5131193;28;20062;-56
2023/05/24 10:15:12;;;;;;;12.10;3.67;;;16.40;99.90;;;;;;5131302;28;20039;-57
2023/05/24 10:17:38;;;;;;;13.95;3.05;;;16.40;99.90;;;;;;5131518;28;20035;-56
2023/05/24 10:20:05;;;;;;;12.25;3.10;;;16.50;99.90;;;;;;5131398;28;20041;-56
2023/05/24 10:22:39;;;;;;;10.60;3.10;;;16.60;99.90;;;;;;5131391;28;20545;-56
2023/05/24 10:25:07;;;;;;;11.15;3.58;;;16.50;99.90;;;;;;5132230;27;20391;-57
2023/05/24 10:27:33;;;;;;;12.30;3.05;;;16.50;99.90;;;;;;5135561;27;20501;-55
2023/05/24 10:30:24;;;;;;;11.30;2.90;;;16.40;99.90;;;;;;5134941;27;20035;-54
2023/05/24 10:32:52;;;;;;;15.75;3.83;;;16.30;99.90;;;;;;5134466;27;20406;-55
2023/05/24 10:35:19;;;;;;;12.45;2.97;;;16.20;99.90;;;;;;5135235;27;20035;-56
2023/05/24 10:37:48;;;;;;;11.95;3.15;;;16.10;99.90;;;;;;5134980;27;20039;-52
2023/05/24 10:40:19;;;;;;;10.27;3.10;;;16.20;99.90;;;;;;5135281;27;20197;-55
2023/05/24 10:42:47;;;;;;;15.20;3.92;;;16.20;99.90;;;;;;5134404;27;20038;-55
2023/05/24 10:45:34;;;;;;;13.82;3.35;;;16.20;99.90;;;;;;5135611;27;20035;-54
2023/05/24 10:48:12;;;;;;;13.45;3.10;;;16.20;99.90;;;;;;5134359;27;20062;-57
2023/05/24 10:50:38;;;;;;;12.85;3.78;;;16.40;99.90;;;;;;5134860;27;20117;-53
2023/05/24 10:53:17;;;;;;;15.02;3.78;;;16.40;99.90;;;;;;5134834;27;20449;-55
2023/05/24 10:55:57;;;;;;;14.10;3.17;;;16.40;99.90;;;;;;5134838;27;20050;-56
2023/05/24 10:58:58;;;;;;;12.10;3.15;;;16.40;99.90;;;;;;5135041;27;21326;-56
2023/05/24 11:01:28;;;;;;;10.65;3.25;;;16.50;99.90;;;;;;5114088;27;20064;-55
2023/05/24 11:04:07;;;;;;;11.30;3.15;;;16.50;99.90;;;;;;5134737;27;20429;-55
2023/05/24 11:07:02;;;;;;;9.93;3.00;;;16.40;99.90;;;;;;5116356;27;20483;-53
2023/05/24 11:09:29;;;;;;;11.93;2.90;;;16.50;99.90;;;;;;5134271;27;20091;-56
2023/05/24 11:12:07;;;;;;;11.57;2.97;;;16.50;99.90;;;;;;5133969;27;20074;-56
2023/05/24 11:14:38;;;;;;;8.80;3.10;;;16.50;99.90;;;;;;5134636;27;20427;-57
2023/05/24 11:17:05;;;;;;;9.80;3.38;;;16.60;99.90;;;;;;5134589;27;20090;-58
2023/05/24 11:19:36;;;;;;;10.10;2.85;;;16.80;99.90;;;;;;5134403;27;20035;-55
2023/05/24 11:22:08;;;;;;;10.45;2.90;;;16.90;99.90;;;;;;5134218;27;20081;-57
2023/05/24 11:24:34;;;;;;;10.02;2.70;;;16.90;99.90;;;;;;5134219;27;20087;-58
2023/05/24 11:27:04;;;;;;;14.63;3.45;;;16.80;99.90;;;;;;5133977;27;20034;-58
2023/05/24 11:29:31;;;;;;;13.40;3.60;;;16.80;99.90;;;;;;5134139;27;20041;-56
2023/05/24 11:32:03;;;;;;;10.70;3.50;;;16.80;99.90;;;;;;5133822;27;20104;-56
2023/05/24 11:34:30;;;;;;;10.25;3.25;;;16.90;99.90;;;;;;5134289;27;20045;-56
2023/05/24 11:36:57;;;;;;;10.52;3.10;;;17.00;99.90;;;;;;5133347;27;20114;-54
2023/05/24 11:39:27;;;;;;;9.75;2.70;;;17.10;99.90;;;;;;5134147;27;20509;-54
2023/05/24 11:41:53;;;;;;;11.50;2.67;;;17.00;99.90;;;;;;5133414;27;20493;-55
2023/05/24 11:44:20;;;;;;;8.38;2.58;;;16.90;99.90;;;;;;5115128;27;20039;-56
2023/05/24 11:46:46;;;;;;;10.75;3.00;;;16.80;99.90;;;;;;5133645;27;20043;-56
2023/05/24 11:49:14;;;;;;;8.13;2.72;;;16.70;99.90;;;;;;5133874;27;20534;-56
2023/05/24 11:51:39;;;;;;;11.00;3.00;;;16.60;99.90;;;;;;5133555;27;20043;-58
2023/05/24 11:54:05;;;;;;;9.35;2.47;;;16.70;99.90;;;;;;5133890;27;20530;-55
2023/05/24 11:56:31;;;;;;;14.40;3.33;;;17.10;99.90;;;;;;5133791;27;20042;-56
2023/05/24 11:59:37;;;;;;;7.82;3.15;;;17.50;99.90;;;;;;5133791;27;20043;-56
2023/05/24 12:02:04;;;;;;;9.20;3.10;;;18.10;99.90;;;;;;5069869;28;20041;-56
2023/05/24 12:04:31;;;;;;;8.23;3.03;;;18.20;99.90;;;;;;5069902;28;20038;-57
2023/05/24 12:06:58;;;;;;;11.32;2.70;;;18.00;99.90;;;;;;5101036;27;20050;-56
2023/05/24 12:09:24;;;;;;;13.60;3.80;;;17.70;99.90;;;;;;5133520;27;20497;-56
2023/05/24 12:11:50;;;;;;;10.85;3.50;;;17.40;99.90;;;;;;5133250;27;20082;-57
2023/05/24 12:14:19;;;;;;;9.45;3.10;;;17.10;99.90;;;;;;5133234;27;20077;-56
2023/05/24 12:16:46;;;;;;;9.75;3.28;;;16.90;99.90;;;;;;5133421;27;20394;-55
2023/05/24 12:19:24;;;;;;;9.52;2.90;;;16.80;99.90;;;;;;5115116;27;20031;-54
2023/05/24 12:21:54;;;;;;;10.98;2.90;;;16.90;99.90;;;;;;5133337;27;20040;-59
2023/05/24 12:24:21;;;;;;;11.20;2.85;;;17.20;99.90;;;;;;5114695;27;20038;-57
2023/05/24 12:26:47;;;;;;;9.60;2.70;;;17.40;99.90;;;;;;5133022;27;20039;-56
2023/05/24 12:29:14;;;;;;;7.43;2.55;;;17.30;99.90;;;;;;5133162;27;20038;-54
2023/05/24 12:31:41;;;;;;;8.40;2.83;;;17.20;99.90;;;;;;5133120;27;20579;-56
2023/05/24 12:34:11;;;;;;;8.77;2.38;;;16.90;99.90;;;;;;5132977;27;20043;-57
2023/05/24 12:36:38;;;;;;;8.35;2.08;;;16.70;99.90;;;;;;5133401;27;20039;-56
2023/05/24 12:39:21;;;;;;;5.97;1.83;;;16.60;99.90;;;;;;5132636;27;20031;-55
2023/05/24 12:41:51;;;;;;;8.52;2.42;;;16.60;99.90;;;;;;5132390;27;20475;-55
2023/05/24 12:44:20;;;;;;;7.10;2.20;;;16.60;99.90;;;;;;5132864;27;20530;-54
2023/05/24 12:46:47;;;;;;;9.13;2.47;;;16.70;99.90;;;;;;5132531;27;20103;-56